createdAt,value
2016-12-19T00:00:01.303Z,5.61
2016-12-19T00:01:01.103Z,5.54
2016-12-19T00:02:00.728Z,5.51
2016-12-19T00:03:01.341Z,5.41
2016-12-19T00:04:01.687Z,5.39
2016-12-19T00:05:01.327Z,5.48
2016-12-19T00:06:00.673Z,5.41
2016-12-19T00:07:01.064Z,5.47
2016-12-19T00:08:02.799Z,5.5
2016-12-19T00:09:01.032Z,5.44
2016-12-19T00:10:01.396Z,5.44
2016-12-19T00:11:00.627Z,5.47
2016-12-19T00:12:01.728Z,5.46
2016-12-19T00:13:01.283Z,5.47
2016-12-19T00:14:01.013Z,5.47
2016-12-19T00:15:01.177Z,5.47
2016-12-19T00:16:01.057Z,5.41
2016-12-19T00:17:01.420Z,5.39
2016-12-19T00:18:01.968Z,5.38
2016-12-19T00:19:02.341Z,5.39
2016-12-19T00:20:01.378Z,5.44
2016-12-19T00:21:01.016Z,5.39
2016-12-19T00:22:01.411Z,5.33
2016-12-19T00:23:01.157Z,5.44
2016-12-19T00:24:01.522Z,5.39
2016-12-19T00:25:01.453Z,5.5
2016-12-19T00:26:01.279Z,5.48
2016-12-19T00:27:01.232Z,5.44
2016-12-19T00:28:02.431Z,5.38
2016-12-19T00:29:01.862Z,5.47
2016-12-19T00:30:01.835Z,5.35
2016-12-19T00:31:01.455Z,5.47
2016-12-19T00:32:02.068Z,5.47
2016-12-19T00:33:01.260Z,5.51
2016-12-19T00:34:01.431Z,5.41
2016-12-19T00:35:01.723Z,5.48
2016-12-19T00:36:02.131Z,5.47
2016-12-19T00:37:01.502Z,5.48
2016-12-19T00:38:01.802Z,5.5
2016-12-19T00:39:01.861Z,5.48
2016-12-19T00:40:01.453Z,5.44
2016-12-19T00:41:01.350Z,5.53
2016-12-19T00:42:01.732Z,5.53
2016-12-19T00:43:01.984Z,5.44
2016-12-19T00:44:01.935Z,5.5
2016-12-19T00:45:01.758Z,5.5
2016-12-19T00:46:01.879Z,5.47
2016-12-19T00:47:01.706Z,5.41
2016-12-19T00:48:01.894Z,5.43
2016-12-19T00:49:01.746Z,5.39
2016-12-19T00:50:01.560Z,5.36
2016-12-19T00:51:02.151Z,5.38
2016-12-19T00:52:01.823Z,5.44
2016-12-19T00:53:02.009Z,5.32
2016-12-19T00:54:02.335Z,5.38
2016-12-19T00:55:02.460Z,5.38
2016-12-19T00:56:01.833Z,5.33
2016-12-19T00:57:01.721Z,5.29
2016-12-19T00:58:01.595Z,5.29
2016-12-19T00:59:02.123Z,5.3
2016-12-19T01:00:01.463Z,5.3
2016-12-19T01:01:02.027Z,5.28
2016-12-19T01:02:02.249Z,5.3
2016-12-19T01:03:01.730Z,5.35
2016-12-19T01:04:02.663Z,5.36
2016-12-19T01:05:02.041Z,5.3
2016-12-19T01:06:01.666Z,5.36
2016-12-19T01:07:02.574Z,5.33
2016-12-19T01:08:02.211Z,5.38
2016-12-19T01:09:01.955Z,5.32
2016-12-19T01:10:01.696Z,5.35
2016-12-19T01:11:02.062Z,5.26
2016-12-19T01:12:01.918Z,5.38
2016-12-19T01:13:02.194Z,5.29
2016-12-19T01:14:01.783Z,5.3
2016-12-19T01:15:01.847Z,5.35
2016-12-19T01:16:02.339Z,5.3
2016-12-19T01:17:02.370Z,5.38
2016-12-19T01:18:02.119Z,5.28
2016-12-19T01:19:01.807Z,5.35
2016-12-19T01:20:02.283Z,5.35
2016-12-19T01:21:02.920Z,5.36
2016-12-19T01:22:01.886Z,5.41
2016-12-19T01:23:01.862Z,5.39
2016-12-19T01:24:02.055Z,5.43
2016-12-19T01:25:02.783Z,5.47
2016-12-19T01:26:02.048Z,5.51
2016-12-19T01:27:02.499Z,5.46
2016-12-19T01:28:02.169Z,5.48
2016-12-19T01:29:02.245Z,5.43
2016-12-19T01:30:02.465Z,5.48
2016-12-19T01:31:02.375Z,5.46
2016-12-19T01:32:02.407Z,5.47
2016-12-19T01:33:02.225Z,5.43
2016-12-19T01:34:02.391Z,5.46
2016-12-19T01:35:02.626Z,5.44
2016-12-19T01:36:01.949Z,5.46
2016-12-19T01:37:02.031Z,5.43
2016-12-19T01:38:02.086Z,5.44
2016-12-19T01:39:02.984Z,5.46
2016-12-19T01:40:02.218Z,5.51
2016-12-19T01:41:02.884Z,5.44
2016-12-19T01:42:02.234Z,5.47
2016-12-19T01:43:03.080Z,5.51
2016-12-19T01:44:02.558Z,5.47
2016-12-19T01:45:02.139Z,5.5
2016-12-19T01:46:02.331Z,5.57
2016-12-19T01:47:03.217Z,5.48
2016-12-19T01:48:02.418Z,5.46
2016-12-19T01:49:03.243Z,5.5
2016-12-19T01:50:02.601Z,5.56
2016-12-19T01:51:02.487Z,5.38
2016-12-19T01:52:02.922Z,5.44
2016-12-19T01:53:02.598Z,5.57
2016-12-19T01:54:02.332Z,5.41
2016-12-19T01:55:02.532Z,5.43
2016-12-19T01:56:02.866Z,5.53
2016-12-19T01:57:02.905Z,5.5
2016-12-19T01:58:02.800Z,5.46
2016-12-19T01:59:03.299Z,5.53
2016-12-19T02:00:02.466Z,5.56
2016-12-19T02:01:03.082Z,5.56
2016-12-19T02:02:02.919Z,5.5
2016-12-19T02:03:02.740Z,5.51
2016-12-19T02:04:03.469Z,5.48
2016-12-19T02:05:03.105Z,5.51
2016-12-19T02:06:02.674Z,5.43
2016-12-19T02:07:03.292Z,5.51
2016-12-19T02:08:02.615Z,5.43
2016-12-19T02:09:03.172Z,5.47
2016-12-19T02:10:02.633Z,5.44
2016-12-19T02:11:03.214Z,5.59
2016-12-19T02:12:03.012Z,5.51
2016-12-19T02:13:03.026Z,5.46
2016-12-19T02:14:03.789Z,5.51
2016-12-19T02:15:02.499Z,5.48
2016-12-19T02:16:03.573Z,5.5
2016-12-19T02:17:03.384Z,5.5
2016-12-19T02:18:03.531Z,5.46
2016-12-19T02:19:02.741Z,5.51
2016-12-19T02:20:03.287Z,5.43
2016-12-19T02:21:02.844Z,5.5
2016-12-19T02:22:02.890Z,5.46
2016-12-19T02:23:02.765Z,5.43
2016-12-19T02:24:02.755Z,5.46
2016-12-19T02:25:03.051Z,5.46
2016-12-19T02:26:02.632Z,5.43
2016-12-19T02:27:03.319Z,5.41
2016-12-19T02:28:02.968Z,5.46
2016-12-19T02:29:02.843Z,5.43
2016-12-19T02:30:03.104Z,5.43
2016-12-19T02:31:03.461Z,5.48
2016-12-19T02:32:03.282Z,5.54
2016-12-19T02:33:03.090Z,5.51
2016-12-19T02:34:03.138Z,5.51
2016-12-19T02:35:03.606Z,5.51
2016-12-19T02:36:03.262Z,5.46
2016-12-19T02:37:03.471Z,5.47
2016-12-19T02:38:03.289Z,5.57
2016-12-19T02:39:03.261Z,5.51
2016-12-19T02:40:02.935Z,5.57
2016-12-19T02:41:03.776Z,5.62
2016-12-19T02:42:03.232Z,5.59
2016-12-19T02:43:03.616Z,5.64
2016-12-19T02:44:03.500Z,5.51
2016-12-19T02:45:03.199Z,5.59
2016-12-19T02:46:03.000Z,5.5
2016-12-19T02:47:02.986Z,5.57
2016-12-19T02:48:03.084Z,5.64
2016-12-19T02:49:03.093Z,5.53
2016-12-19T02:50:03.423Z,5.51
2016-12-19T02:51:03.204Z,5.51
2016-12-19T02:52:03.339Z,5.62
2016-12-19T02:53:03.538Z,5.59
2016-12-19T02:54:03.339Z,5.56
2016-12-19T02:55:03.889Z,5.53
2016-12-19T02:56:03.468Z,5.56
2016-12-19T02:57:03.827Z,5.46
2016-12-19T02:58:04.321Z,5.44
2016-12-19T02:59:03.917Z,5.46
2016-12-19T03:00:03.851Z,5.43
2016-12-19T03:01:03.492Z,5.51
2016-12-19T03:02:03.046Z,5.44
2016-12-19T03:03:03.098Z,5.41
2016-12-19T03:04:03.946Z,5.47
2016-12-19T03:05:03.402Z,5.43
2016-12-19T03:06:03.606Z,5.44
2016-12-19T03:07:03.662Z,5.44
2016-12-19T03:08:03.353Z,5.48
2016-12-19T03:09:03.380Z,5.44
2016-12-19T03:10:03.838Z,5.51
2016-12-19T03:11:03.609Z,5.51
2016-12-19T03:12:03.529Z,5.46
2016-12-19T03:13:03.435Z,5.51
2016-12-19T03:14:04.104Z,5.46
2016-12-19T03:15:03.879Z,5.44
2016-12-19T03:16:03.517Z,5.43
2016-12-19T03:17:03.447Z,5.46
2016-12-19T03:18:03.613Z,5.48
2016-12-19T03:19:03.881Z,5.46
2016-12-19T03:20:04.348Z,5.39
2016-12-19T03:21:03.856Z,5.47
2016-12-19T03:22:04.063Z,5.43
2016-12-19T03:23:04.110Z,5.47
2016-12-19T03:24:03.888Z,5.53
2016-12-19T03:25:04.751Z,5.48
2016-12-19T03:26:04.516Z,5.46
2016-12-19T03:27:04.229Z,5.43
2016-12-19T03:28:04.203Z,5.44
2016-12-19T03:29:03.977Z,5.47
2016-12-19T03:30:03.743Z,5.46
2016-12-19T03:31:04.422Z,5.53
2016-12-19T03:32:03.984Z,5.53
2016-12-19T03:33:04.147Z,5.46
2016-12-19T03:34:03.792Z,5.43
2016-12-19T03:35:04.828Z,5.39
2016-12-19T03:36:04.146Z,5.48
2016-12-19T03:37:03.710Z,5.43
2016-12-19T03:38:04.098Z,5.43
2016-12-19T03:39:04.227Z,5.43
2016-12-19T03:40:04.336Z,5.35
2016-12-19T03:41:03.683Z,5.39
2016-12-19T03:42:04.530Z,5.41
2016-12-19T03:43:04.015Z,5.41
2016-12-19T03:44:04.797Z,5.39
2016-12-19T03:45:04.449Z,5.35
2016-12-19T03:46:03.949Z,5.36
2016-12-19T03:47:03.993Z,5.33
2016-12-19T03:48:04.636Z,5.35
2016-12-19T03:49:04.803Z,5.38
2016-12-19T03:50:04.495Z,5.3
2016-12-19T03:51:04.361Z,5.32
2016-12-19T03:52:05.641Z,5.3
2016-12-19T03:53:04.377Z,5.28
2016-12-19T03:54:05.372Z,5.3
2016-12-19T03:55:04.112Z,5.32
2016-12-19T03:56:04.454Z,5.3
2016-12-19T03:57:04.194Z,5.33
2016-12-19T03:58:03.976Z,5.29
2016-12-19T03:59:04.890Z,5.36
2016-12-19T04:00:04.494Z,5.3
2016-12-19T04:01:04.177Z,5.26
2016-12-19T04:02:04.713Z,5.33
2016-12-19T04:03:04.783Z,5.33
2016-12-19T04:04:04.221Z,5.26
2016-12-19T04:05:05.315Z,5.29
2016-12-19T04:06:04.488Z,5.32
2016-12-19T04:07:04.469Z,5.35
2016-12-19T04:08:04.666Z,5.26
2016-12-19T04:09:04.799Z,5.26
2016-12-19T04:10:04.911Z,5.33
2016-12-19T04:11:04.643Z,5.33
2016-12-19T04:12:04.599Z,5.29
2016-12-19T04:13:04.883Z,5.26
2016-12-19T04:14:04.539Z,5.21
2016-12-19T04:15:04.715Z,5.12
2016-12-19T04:16:04.159Z,5.21
2016-12-19T04:17:05.397Z,5.11
2016-12-19T04:18:04.870Z,5.25
2016-12-19T04:19:04.641Z,5.2
2016-12-19T04:20:06.032Z,5.08
2016-12-19T04:21:04.490Z,5.18
2016-12-19T04:22:04.315Z,5.15
2016-12-19T04:23:05.365Z,5.2
2016-12-19T04:24:04.987Z,5.12
2016-12-19T04:25:04.982Z,5.11
2016-12-19T04:26:05.890Z,5.12
2016-12-19T04:27:05.649Z,5.08
2016-12-19T04:28:04.644Z,5.02
2016-12-19T04:29:04.840Z,4.99
2016-12-19T04:30:04.952Z,5
2016-12-19T04:31:04.929Z,5.1
2016-12-19T04:32:05.316Z,5
2016-12-19T04:33:04.651Z,4.99
2016-12-19T04:34:04.602Z,5.05
2016-12-19T04:35:04.871Z,5.08
2016-12-19T04:36:04.665Z,4.99
2016-12-19T04:37:05.209Z,5
2016-12-19T04:38:05.378Z,5.05
2016-12-19T04:39:05.743Z,5.04
2016-12-19T04:40:05.394Z,4.96
2016-12-19T04:41:05.938Z,4.97
2016-12-19T04:42:05.733Z,4.99
2016-12-19T04:43:06.141Z,4.97
2016-12-19T04:44:05.394Z,4.99
2016-12-19T04:45:05.605Z,5.02
2016-12-19T04:46:05.171Z,5.02
2016-12-19T04:47:05.568Z,5
2016-12-19T04:48:05.468Z,5.1
2016-12-19T04:49:05.463Z,4.99
2016-12-19T04:50:05.353Z,5.02
2016-12-19T04:51:05.433Z,5.05
2016-12-19T04:52:05.847Z,5.02
2016-12-19T04:53:05.906Z,5.02
2016-12-19T04:54:05.561Z,5.02
2016-12-19T04:55:04.855Z,4.97
2016-12-19T04:56:05.274Z,4.97
2016-12-19T04:57:05.392Z,5.04
2016-12-19T04:58:05.419Z,4.99
2016-12-19T04:59:05.398Z,5.04
2016-12-19T05:00:05.196Z,5.04
2016-12-19T05:01:06.122Z,4.94
2016-12-19T05:02:04.823Z,5
2016-12-19T05:03:06.865Z,5
2016-12-19T05:04:05.927Z,4.99
2016-12-19T05:05:05.912Z,5
2016-12-19T05:06:05.899Z,4.99
2016-12-19T05:07:07.338Z,4.99
2016-12-19T05:08:07.092Z,4.97
2016-12-19T05:09:05.654Z,5
2016-12-19T05:10:06.411Z,5.08
2016-12-19T05:11:06.960Z,5
2016-12-19T05:12:06.445Z,5.04
2016-12-19T05:13:07.304Z,5.1
2016-12-19T05:14:06.265Z,4.97
2016-12-19T05:15:06.533Z,5.02
2016-12-19T05:16:07.207Z,5.02
2016-12-19T05:17:07.543Z,4.99
2016-12-19T05:18:07.242Z,5.02
2016-12-19T05:19:05.337Z,5.04
2016-12-19T05:20:07.715Z,5.02
2016-12-19T05:21:06.592Z,5
2016-12-19T05:22:06.927Z,4.99
2016-12-19T05:23:06.057Z,4.94
2016-12-19T05:24:07.965Z,5.1
2016-12-19T05:25:06.380Z,4.99
2016-12-19T05:26:05.913Z,5
2016-12-19T05:27:06.861Z,5.04
2016-12-19T05:28:06.404Z,4.93
2016-12-19T05:29:07.279Z,4.96
2016-12-19T05:30:07.357Z,5.08
2016-12-19T05:31:07.723Z,5.07
2016-12-19T05:32:06.696Z,5.02
2016-12-19T05:33:07.005Z,4.97
2016-12-19T05:34:07.557Z,4.97
2016-12-19T05:35:07.852Z,5.04
2016-12-19T05:36:06.303Z,4.96
2016-12-19T05:37:06.519Z,5.05
2016-12-19T05:38:07.052Z,5.02
2016-12-19T05:39:06.635Z,5.02
2016-12-19T05:40:07.113Z,4.97
2016-12-19T05:41:07.483Z,4.99
2016-12-19T05:42:07.420Z,5.07
2016-12-19T05:43:08.283Z,5.07
2016-12-19T05:44:07.933Z,4.97
2016-12-19T05:45:07.087Z,5.05
2016-12-19T05:46:07.457Z,4.97
2016-12-19T05:47:06.495Z,5
2016-12-19T05:48:05.979Z,5.05
2016-12-19T05:49:06.521Z,4.97
2016-12-19T05:50:06.904Z,5.02
2016-12-19T05:51:06.813Z,4.99
2016-12-19T05:52:07.094Z,4.99
2016-12-19T05:53:07.839Z,4.96
2016-12-19T05:54:07.601Z,4.99
2016-12-19T05:55:06.571Z,4.96
2016-12-19T05:56:06.773Z,5.02
2016-12-19T05:57:07.551Z,4.97
2016-12-19T05:58:06.984Z,5
2016-12-19T05:59:07.298Z,5.04
2016-12-19T06:00:07.534Z,5.14
2016-12-19T06:01:09.465Z,4.99
2016-12-19T06:02:07.915Z,5
2016-12-19T06:03:06.521Z,5
2016-12-19T06:04:07.088Z,5
2016-12-19T06:05:06.951Z,5
2016-12-19T06:06:07.919Z,5.07
2016-12-19T06:07:06.369Z,5.05
2016-12-19T06:08:06.910Z,5.04
2016-12-19T06:09:07.244Z,5
2016-12-19T06:10:06.259Z,5.1
2016-12-19T06:11:08.565Z,5.04
2016-12-19T06:12:10.455Z,5.1
2016-12-19T06:13:10.039Z,5.04
2016-12-19T06:14:10.406Z,5
2016-12-19T06:15:10.471Z,5.15
2016-12-19T06:16:09.410Z,5.15
2016-12-19T06:17:08.421Z,5.1
2016-12-19T06:18:08.824Z,5.1
2016-12-19T06:19:10.119Z,5.1
2016-12-19T06:20:06.854Z,5.12
2016-12-19T06:21:07.117Z,5.17
2016-12-19T06:22:07.227Z,5.02
2016-12-19T06:23:07.141Z,5.07
2016-12-19T06:24:06.859Z,5.02
2016-12-19T06:25:06.991Z,5
2016-12-19T06:26:06.562Z,4.97
2016-12-19T06:27:07.189Z,5.07
2016-12-19T06:28:06.556Z,5.1
2016-12-19T06:29:05.996Z,5.08
2016-12-19T06:30:05.752Z,5.1
2016-12-19T06:31:06.783Z,5.1
2016-12-19T06:32:07.136Z,5.08
2016-12-19T06:33:06.317Z,5.07
2016-12-19T06:34:07.349Z,5.14
2016-12-19T06:35:06.748Z,5.17
2016-12-19T06:36:06.712Z,5.11
2016-12-19T06:37:06.661Z,5.11
2016-12-19T06:38:06.714Z,5.11
2016-12-19T06:39:06.768Z,5.1
2016-12-19T06:40:07.592Z,5.11
2016-12-19T06:41:07.714Z,5.1
2016-12-19T06:42:07.263Z,5.11
2016-12-19T06:43:07.244Z,5.08
2016-12-19T06:44:07.630Z,5.14
2016-12-19T06:45:06.814Z,5.07
2016-12-19T06:46:06.901Z,5.14
2016-12-19T06:47:07.488Z,5.1
2016-12-19T06:48:06.692Z,5.12
2016-12-19T06:49:07.145Z,5.11
2016-12-19T06:50:06.503Z,5.08
2016-12-19T06:51:06.969Z,5.04
2016-12-19T06:52:07.189Z,5.04
2016-12-19T06:53:07.198Z,5.02
2016-12-19T06:54:07.325Z,4.96
2016-12-19T06:55:08.758Z,4.96
2016-12-19T06:56:07.242Z,5.02
2016-12-19T06:57:07.764Z,5.02
2016-12-19T06:58:07.788Z,4.99
2016-12-19T06:59:07.778Z,5.04
2016-12-19T07:00:07.954Z,5.04
2016-12-19T07:01:07.530Z,5.04
2016-12-19T07:02:07.145Z,4.99
2016-12-19T07:03:07.482Z,5
2016-12-19T07:04:08.043Z,4.96
2016-12-19T07:05:07.125Z,4.99
2016-12-19T07:06:08.046Z,4.96
2016-12-19T07:07:08.016Z,5
2016-12-19T07:08:07.993Z,4.99
2016-12-19T07:09:09.271Z,5.05
2016-12-19T07:10:08.541Z,5.07
2016-12-19T07:11:08.621Z,5.02
2016-12-19T07:12:08.074Z,4.99
2016-12-19T07:13:07.021Z,5.02
2016-12-19T07:14:07.352Z,4.96
2016-12-19T07:15:08.431Z,4.99
2016-12-19T07:16:07.843Z,5.15
2016-12-19T07:17:07.450Z,5.04
2016-12-19T07:18:07.924Z,5.05
2016-12-19T07:21:14.806Z,5
2016-12-19T07:23:16.929Z,5.02
2016-12-19T07:27:08.838Z,5.12
2016-12-19T07:28:07.603Z,5
2016-12-19T07:29:06.818Z,5.07
2016-12-19T07:30:09.122Z,5.05
2016-12-19T07:31:08.507Z,5.05
2016-12-19T07:32:08.075Z,5.05
2016-12-19T07:33:07.213Z,5.08
2016-12-19T07:34:08.314Z,5.08
2016-12-19T07:35:07.293Z,5.04
2016-12-19T07:36:07.868Z,5.08
2016-12-19T07:37:08.046Z,5.04
2016-12-19T07:38:08.375Z,5.02
2016-12-19T07:39:07.357Z,5
2016-12-19T07:40:07.777Z,5
2016-12-19T07:41:10.903Z,5
2016-12-19T07:42:09.758Z,5.07
2016-12-19T07:43:10.284Z,5.11
2016-12-19T07:44:10.615Z,5.1
2016-12-19T07:45:08.660Z,5.12
2016-12-19T07:46:09.254Z,5.08
2016-12-19T07:47:08.051Z,5.14
2016-12-19T07:48:07.984Z,5.15
2016-12-19T07:49:08.142Z,5.18
2016-12-19T07:50:07.424Z,5.17
2016-12-19T07:51:08.384Z,5.11
2016-12-19T07:52:08.337Z,5.17
2016-12-19T07:53:08.382Z,5.11
2016-12-19T07:54:07.890Z,5.18
2016-12-19T07:55:08.168Z,5.08
2016-12-19T07:56:08.308Z,5.17
2016-12-19T07:57:08.177Z,5.23
2016-12-19T07:58:08.173Z,5.26
2016-12-19T07:59:08.157Z,5.25
2016-12-19T08:00:08.649Z,5.26
2016-12-19T08:01:07.833Z,5.28
2016-12-19T08:02:08.496Z,5.23
2016-12-19T08:03:08.304Z,5.28
2016-12-19T08:04:08.238Z,5.25
2016-12-19T08:05:08.452Z,5.25
2016-12-19T08:06:08.698Z,5.26
2016-12-19T08:07:07.750Z,5.3
2016-12-19T08:08:08.217Z,5.3
2016-12-19T08:09:08.103Z,5.3
2016-12-19T08:10:08.364Z,5.25
2016-12-19T08:11:08.123Z,5.23
2016-12-19T08:12:07.789Z,5.33
2016-12-19T08:13:08.212Z,5.36
2016-12-19T08:14:08.992Z,5.33
2016-12-19T08:15:08.485Z,5.26
2016-12-19T08:16:08.672Z,5.28
2016-12-19T08:17:08.281Z,5.36
2016-12-19T08:18:08.780Z,5.25
2016-12-19T08:19:08.232Z,5.3
2016-12-19T08:20:08.200Z,5.36
2016-12-19T08:21:08.261Z,5.29
2016-12-19T08:22:07.917Z,5.28
2016-12-19T08:23:08.153Z,5.33
2016-12-19T08:24:08.151Z,5.39
2016-12-19T08:25:08.018Z,5.39
2016-12-19T08:26:08.622Z,5.38
2016-12-19T08:27:08.647Z,5.38
2016-12-19T08:28:08.964Z,5.36
2016-12-19T08:29:08.495Z,5.39
2016-12-19T08:30:09.209Z,5.38
2016-12-19T08:31:08.656Z,5.38
2016-12-19T08:32:08.852Z,5.39
2016-12-19T08:33:08.512Z,5.38
2016-12-19T08:34:08.297Z,5.39
2016-12-19T08:35:08.404Z,5.33
2016-12-19T08:36:11.035Z,5.43
2016-12-19T08:37:09.166Z,5.36
2016-12-19T08:38:08.664Z,5.44
2016-12-19T08:39:09.005Z,5.39
2016-12-19T08:40:08.688Z,5.36
2016-12-19T08:41:09.634Z,5.44
2016-12-19T08:42:09.010Z,5.43
2016-12-19T08:43:08.331Z,5.46
2016-12-19T08:44:08.846Z,5.38
2016-12-19T08:45:08.111Z,5.53
2016-12-19T08:46:08.391Z,5.47
2016-12-19T08:47:08.180Z,5.39
2016-12-19T08:48:09.158Z,5.41
2016-12-19T08:49:08.192Z,5.38
2016-12-19T08:50:08.433Z,5.43
2016-12-19T08:51:09.209Z,5.43
2016-12-19T08:52:08.768Z,5.41
2016-12-19T08:53:08.385Z,5.44
2016-12-19T08:54:08.627Z,5.39
2016-12-19T08:55:09.013Z,5.5
2016-12-19T08:56:08.522Z,5.39
2016-12-19T08:57:09.432Z,5.47
2016-12-19T08:58:08.093Z,5.44
2016-12-19T08:59:09.502Z,5.41
2016-12-19T09:00:08.265Z,5.44
2016-12-19T09:01:09.847Z,5.33
2016-12-19T09:02:09.252Z,5.41
2016-12-19T09:03:09.442Z,5.39
2016-12-19T09:04:09.033Z,5.44
2016-12-19T09:05:08.726Z,5.36
2016-12-19T09:06:08.399Z,5.39
2016-12-19T09:07:08.986Z,5.38
2016-12-19T09:08:08.748Z,5.47
2016-12-19T09:09:09.464Z,5.39
2016-12-19T09:10:08.720Z,5.41
2016-12-19T09:11:08.587Z,5.36
2016-12-19T09:12:09.017Z,5.36
2016-12-19T09:13:09.544Z,5.41
2016-12-19T09:14:08.725Z,5.41
2016-12-19T09:15:09.043Z,5.41
2016-12-19T09:16:08.802Z,5.39
2016-12-19T09:17:08.921Z,5.41
2016-12-19T09:18:08.730Z,5.39
2016-12-19T09:19:10.062Z,5.43
2016-12-19T09:20:10.062Z,5.35
2016-12-19T09:21:09.288Z,5.28
2016-12-19T09:22:09.183Z,5.33
2016-12-19T09:23:09.431Z,5.29
2016-12-19T09:24:08.613Z,5.3
2016-12-19T09:25:09.726Z,5.33
2016-12-19T09:26:09.041Z,5.26
2016-12-19T09:27:09.073Z,5.44
2016-12-19T09:28:09.741Z,5.36
2016-12-19T09:29:09.110Z,5.33
2016-12-19T09:30:09.133Z,5.38
2016-12-19T09:31:10.083Z,5.39
2016-12-19T09:32:08.875Z,5.41
2016-12-19T09:33:09.521Z,5.28
2016-12-19T09:34:09.257Z,5.35
2016-12-19T09:35:09.980Z,5.3
2016-12-19T09:36:09.204Z,5.29
2016-12-19T09:37:08.893Z,5.32
2016-12-19T09:38:09.638Z,5.23
2016-12-19T09:39:09.126Z,5.23
2016-12-19T09:40:09.598Z,5.21
2016-12-19T09:41:09.394Z,5.18
2016-12-19T09:42:09.446Z,5.21
2016-12-19T09:43:09.570Z,5.21
2016-12-19T09:44:09.245Z,5.2
2016-12-19T09:45:09.501Z,5.26
2016-12-19T09:46:09.668Z,5.38
2016-12-19T09:47:10.827Z,5.53
2016-12-19T09:48:09.694Z,5.72
2016-12-19T09:49:09.597Z,5.71
2016-12-19T09:50:10.801Z,5.98
2016-12-19T09:51:09.722Z,6.22
2016-12-19T09:52:09.412Z,6.41
2016-12-19T09:53:09.963Z,6.64
2016-12-19T09:54:10.192Z,6.69
2016-12-19T09:55:09.484Z,6.67
2016-12-19T09:56:09.261Z,6.54
2016-12-19T09:57:10.881Z,6.56
2016-12-19T09:58:10.699Z,6.48
2016-12-19T09:59:09.063Z,6.63
2016-12-19T10:00:09.543Z,6.75
2016-12-19T10:01:09.195Z,6.63
2016-12-19T10:02:10.608Z,6.52
2016-12-19T10:03:09.261Z,6.38
2016-12-19T10:04:09.861Z,6.24
2016-12-19T10:05:09.341Z,6.08
2016-12-19T10:06:09.351Z,6.16
2016-12-19T10:07:10.112Z,6.01
2016-12-19T10:08:10.169Z,5.94
2016-12-19T10:09:10.390Z,5.89
2016-12-19T10:10:09.611Z,5.93
2016-12-19T10:11:09.639Z,5.89
2016-12-19T10:12:10.128Z,5.98
2016-12-19T10:13:10.291Z,5.91
2016-12-19T10:14:10.127Z,5.82
2016-12-19T10:15:10.499Z,5.75
2016-12-19T10:16:10.169Z,5.82
2016-12-19T10:17:10.042Z,5.83
2016-12-19T10:18:11.254Z,5.86
2016-12-19T10:19:10.008Z,5.84
2016-12-19T10:20:09.993Z,5.8
2016-12-19T10:21:10.914Z,5.79
2016-12-19T10:22:10.342Z,5.76
2016-12-19T10:23:10.077Z,5.71
2016-12-19T10:24:09.658Z,5.75
2016-12-19T10:25:11.110Z,5.64
2016-12-19T10:26:11.034Z,5.72
2016-12-19T10:27:09.979Z,5.73
2016-12-19T10:28:09.905Z,5.68
2016-12-19T10:29:11.130Z,5.62
2016-12-19T10:30:10.683Z,5.73
2016-12-19T10:31:11.049Z,5.71
2016-12-19T10:32:09.656Z,5.79
2016-12-19T10:33:10.237Z,5.66
2016-12-19T10:34:10.872Z,5.79
2016-12-19T10:35:09.788Z,5.82
2016-12-19T10:36:09.744Z,5.76
2016-12-19T10:37:10.315Z,5.87
2016-12-19T10:38:10.357Z,5.84
2016-12-19T10:39:09.763Z,5.91
2016-12-19T10:40:10.588Z,5.83
2016-12-19T10:41:10.056Z,5.91
2016-12-19T10:42:10.322Z,5.86
2016-12-19T10:43:10.235Z,5.89
2016-12-19T10:44:10.715Z,5.83
2016-12-19T10:45:10.710Z,5.72
2016-12-19T10:46:10.256Z,5.8
2016-12-19T10:47:10.759Z,5.76
2016-12-19T10:48:10.643Z,5.73
2016-12-19T10:49:10.237Z,5.79
2016-12-19T10:50:10.729Z,5.83
2016-12-19T10:51:10.713Z,5.87
2016-12-19T10:52:10.616Z,5.93
2016-12-19T10:53:10.787Z,5.87
2016-12-19T10:54:10.858Z,5.99
2016-12-19T10:55:10.832Z,5.91
2016-12-19T10:56:10.925Z,5.86
2016-12-19T10:57:11.290Z,5.99
2016-12-19T10:58:10.104Z,5.97
2016-12-19T10:59:10.553Z,6.11
2016-12-19T11:00:11.611Z,6.11
2016-12-19T11:01:10.904Z,6.16
2016-12-19T11:02:10.493Z,6.26
2016-12-19T11:03:10.524Z,6.24
2016-12-19T11:04:10.585Z,6.24
2016-12-19T11:05:11.058Z,6.26
2016-12-19T11:06:11.659Z,6.26
2016-12-19T11:07:11.665Z,6.38
2016-12-19T11:08:10.854Z,6.36
2016-12-19T11:09:11.220Z,6.3
2016-12-19T11:10:11.687Z,6.27
2016-12-19T11:11:11.255Z,6.31
2016-12-19T11:12:11.078Z,6.31
2016-12-19T11:13:10.762Z,6.26
2016-12-19T11:14:10.503Z,6.16
2016-12-19T11:15:11.058Z,6.12
2016-12-19T11:16:10.548Z,6.17
2016-12-19T11:17:11.589Z,6.3
2016-12-19T11:18:10.490Z,6.27
2016-12-19T11:19:10.623Z,6.2
2016-12-19T11:20:10.871Z,6.27
2016-12-19T11:21:10.561Z,6.33
2016-12-19T11:22:11.052Z,6.52
2016-12-19T11:23:11.102Z,6.57
2016-12-19T11:24:10.479Z,6.64
2016-12-19T11:25:11.065Z,6.69
2016-12-19T11:26:10.943Z,6.72
2016-12-19T11:27:11.306Z,6.81
2016-12-19T11:28:11.057Z,6.88
2016-12-19T11:29:11.212Z,6.96
2016-12-19T11:30:11.477Z,6.81
2016-12-19T11:31:10.558Z,6.77
2016-12-19T11:32:11.260Z,6.66
2016-12-19T11:33:10.839Z,6.54
2016-12-19T11:34:10.650Z,6.62
2016-12-19T11:35:10.783Z,6.48
2016-12-19T11:36:10.504Z,6.56
2016-12-19T11:37:10.920Z,6.51
2016-12-19T11:38:11.525Z,6.46
2016-12-19T11:39:11.511Z,6.38
2016-12-19T11:40:11.241Z,6.27
2016-12-19T11:41:11.099Z,6.22
2016-12-19T11:42:11.469Z,6.3
2016-12-19T11:43:11.330Z,6.22
2016-12-19T11:44:10.854Z,6.27
2016-12-19T11:45:11.046Z,6.2
2016-12-19T11:46:10.801Z,6.17
2016-12-19T11:47:11.257Z,6.26
2016-12-19T11:48:11.279Z,6.2
2016-12-19T11:49:11.511Z,6.17
2016-12-19T11:50:11.256Z,6.26
2016-12-19T11:51:11.072Z,6.26
2016-12-19T11:52:11.091Z,6.31
2016-12-19T11:53:11.846Z,6.27
2016-12-19T11:54:11.347Z,6.22
2016-12-19T11:55:11.187Z,6.22
2016-12-19T11:56:11.154Z,6.27
2016-12-19T11:57:11.294Z,6.26
2016-12-19T11:58:11.494Z,6.22
2016-12-19T11:59:11.482Z,6.27
2016-12-19T12:00:11.458Z,6.2
2016-12-19T12:01:11.345Z,6.09
2016-12-19T12:02:11.689Z,6.11
2016-12-19T12:03:11.702Z,6.04
2016-12-19T12:04:11.708Z,6.05
2016-12-19T12:05:11.801Z,6.08
2016-12-19T12:06:12.091Z,6.04
2016-12-19T12:07:11.476Z,6.05
2016-12-19T12:08:11.879Z,6.08
2016-12-19T12:09:12.191Z,6.14
2016-12-19T12:10:11.142Z,6.16
2016-12-19T12:11:12.195Z,6.2
2016-12-19T12:12:11.111Z,6.19
2016-12-19T12:13:12.115Z,6.19
2016-12-19T12:14:12.203Z,6.02
2016-12-19T12:15:12.535Z,6.05
2016-12-19T12:16:12.085Z,6.12
2016-12-19T12:17:11.772Z,6.02
2016-12-19T12:18:12.072Z,6.07
2016-12-19T12:19:12.063Z,5.99
2016-12-19T12:20:11.506Z,6.07
2016-12-19T12:21:11.827Z,6.07
2016-12-19T12:22:11.454Z,5.98
2016-12-19T12:23:12.039Z,6.05
2016-12-19T12:24:11.820Z,6.09
2016-12-19T12:25:11.821Z,6.08
2016-12-19T12:26:11.615Z,6.05
2016-12-19T12:27:11.832Z,6.12
2016-12-19T12:28:12.158Z,6.02
2016-12-19T12:29:12.036Z,6.02
2016-12-19T12:30:12.651Z,6.07
2016-12-19T12:31:11.981Z,6.02
2016-12-19T12:32:11.640Z,6.08
2016-12-19T12:33:12.706Z,6.09
2016-12-19T12:34:11.649Z,6.07
2016-12-19T12:35:11.615Z,6.11
2016-12-19T12:36:12.124Z,6.12
2016-12-19T12:37:12.052Z,6.11
2016-12-19T12:38:12.148Z,6.09
2016-12-19T12:39:13.164Z,6.12
2016-12-19T12:40:11.753Z,6.09
2016-12-19T12:41:11.847Z,6.14
2016-12-19T12:42:12.923Z,6.14
2016-12-19T12:43:11.954Z,6.14
2016-12-19T12:44:11.982Z,6.19
2016-12-19T12:45:12.225Z,6.19
2016-12-19T12:46:12.695Z,6.12
2016-12-19T12:47:12.419Z,6.19
2016-12-19T12:48:12.568Z,6.14
2016-12-19T12:49:12.204Z,6.19
2016-12-19T12:50:12.169Z,6.19
2016-12-19T12:51:13.068Z,6.11
2016-12-19T12:52:12.223Z,6.24
2016-12-19T12:53:12.795Z,6.2
2016-12-19T12:54:13.633Z,6.19
2016-12-19T12:55:12.704Z,6.22
2016-12-19T12:56:12.937Z,6.26
2016-12-19T12:57:12.465Z,6.28
2016-12-19T12:58:12.932Z,6.22
2016-12-19T12:59:12.270Z,6.28
2016-12-19T13:00:12.349Z,6.28
2016-12-19T13:01:12.204Z,6.3
2016-12-19T13:02:13.094Z,6.28
2016-12-19T13:03:12.501Z,6.28
2016-12-19T13:04:12.500Z,6.27
2016-12-19T13:05:12.118Z,6.33
2016-12-19T13:06:13.194Z,6.26
2016-12-19T13:07:13.224Z,6.31
2016-12-19T13:08:12.964Z,6.2
2016-12-19T13:09:12.569Z,6.24
2016-12-19T13:10:13.468Z,6.17
2016-12-19T13:11:13.510Z,6.12
2016-12-19T13:12:12.953Z,6.16
2016-12-19T13:13:13.358Z,6.17
2016-12-19T13:14:13.672Z,6.19
2016-12-19T13:15:13.950Z,6.14
2016-12-19T13:16:13.431Z,6.14
2016-12-19T13:17:13.953Z,6.14
2016-12-19T13:18:13.515Z,6.12
2016-12-19T13:19:13.412Z,6.08
2016-12-19T13:20:13.964Z,6.17
2016-12-19T13:21:13.523Z,6.14
2016-12-19T13:22:13.539Z,6.16
2016-12-19T13:23:12.658Z,6.09
2016-12-19T13:24:13.373Z,6.19
2016-12-19T13:25:13.138Z,6.16
2016-12-19T13:26:12.135Z,6.09
2016-12-19T13:27:13.028Z,6.11
2016-12-19T13:28:12.933Z,6.12
2016-12-19T13:29:12.640Z,6.14